sensor_id;sensor_type;location;lat;lon;timestamp;P1;durP1;ratioP1;P2;durP2;ratioP2
79456;SDS011;69494;43.654;3.884;2023-04-19T00:00:18;0.20;;;0.20;;
79456;SDS011;69494;43.654;3.884;2023-04-19T00:02:45;0.13;;;0.10;;
79456;SDS011;69494;43.654;3.884;2023-04-19T00:05:13;0.00;;;0.00;;
79456;SDS011;69494;43.654;3.884;2023-04-19T00:07:39;0.20;;;0.20;;
79456;SDS011;69494;43.654;3.884;2023-04-19T00:10:04;0.05;;;0.05;;
79456;SDS011;69494;43.654;3.884;2023-04-19T00:12:31;0.28;;;0.25;;
79456;SDS011;69494;43.654;3.884;2023-04-19T00:14:56;0.00;;;0.00;;
79456;SDS011;69494;43.654;3.884;2023-04-19T00:17:22;0.13;;;0.13;;
79456;SDS011;69494;43.654;3.884;2023-04-19T00:19:47;0.05;;;0.05;;
79456;SDS011;69494;43.654;3.884;2023-04-19T00:22:12;0.10;;;0.10;;
79456;SDS011;69494;43.654;3.884;2023-04-19T00:24:38;0.40;;;0.32;;
79456;SDS011;69494;43.654;3.884;2023-04-19T00:27:03;0.15;;;0.15;;
79456;SDS011;69494;43.654;3.884;2023-04-19T00:29:29;0.10;;;0.10;;
79456;SDS011;69494;43.654;3.884;2023-04-19T00:31:54;0.52;;;0.43;;
79456;SDS011;69494;43.654;3.884;2023-04-19T00:34:20;0.70;;;0.52;;
79456;SDS011;69494;43.654;3.884;2023-04-19T00:36:45;0.30;;;0.30;;
79456;SDS011;69494;43.654;3.884;2023-04-19T00:39:10;0.08;;;0.08;;
79456;SDS011;69494;43.654;3.884;2023-04-19T00:41:36;0.20;;;0.20;;
79456;SDS011;69494;43.654;3.884;2023-04-19T00:44:01;0.00;;;0.00;;
79456;SDS011;69494;43.654;3.884;2023-04-19T00:46:27;0.73;;;0.73;;
79456;SDS011;69494;43.654;3.884;2023-04-19T00:48:52;0.17;;;0.17;;
79456;SDS011;69494;43.654;3.884;2023-04-19T00:51:18;0.22;;;0.22;;
79456;SDS011;69494;43.654;3.884;2023-04-19T00:53:44;0.10;;;0.10;;
79456;SDS011;69494;43.654;3.884;2023-04-19T00:56:10;0.15;;;0.15;;
79456;SDS011;69494;43.654;3.884;2023-04-19T00:58:37;0.15;;;0.15;;
79456;SDS011;69494;43.654;3.884;2023-04-19T01:01:03;0.10;;;0.10;;
79456;SDS011;69494;43.654;3.884;2023-04-19T01:03:30;0.22;;;0.22;;
79456;SDS011;69494;43.654;3.884;2023-04-19T01:05:55;0.22;;;0.22;;
79456;SDS011;69494;43.654;3.884;2023-04-19T01:08:21;0.20;;;0.20;;
79456;SDS011;69494;43.654;3.884;2023-04-19T01:10:47;0.17;;;0.17;;
79456;SDS011;69494;43.654;3.884;2023-04-19T01:13:12;0.08;;;0.08;;
79456;SDS011;69494;43.654;3.884;2023-04-19T01:15:38;0.10;;;0.10;;
79456;SDS011;69494;43.654;3.884;2023-04-19T01:18:03;0.50;;;0.50;;
79456;SDS011;69494;43.654;3.884;2023-04-19T01:20:29;0.30;;;0.30;;
79456;SDS011;69494;43.654;3.884;2023-04-19T01:22:54;0.00;;;0.00;;
79456;SDS011;69494;43.654;3.884;2023-04-19T01:25:19;0.40;;;0.40;;
79456;SDS011;69494;43.654;3.884;2023-04-19T01:27:45;0.40;;;0.28;;
79456;SDS011;69494;43.654;3.884;2023-04-19T01:30:11;0.20;;;0.20;;
79456;SDS011;69494;43.654;3.884;2023-04-19T01:32:36;0.15;;;0.15;;
79456;SDS011;69494;43.654;3.884;2023-04-19T01:35:02;0.30;;;0.25;;
79456;SDS011;69494;43.654;3.884;2023-04-19T01:37:28;0.10;;;0.10;;
79456;SDS011;69494;43.654;3.884;2023-04-19T01:39:53;0.10;;;0.10;;
79456;SDS011;69494;43.654;3.884;2023-04-19T01:42:19;0.10;;;0.10;;
79456;SDS011;69494;43.654;3.884;2023-04-19T01:44:44;0.17;;;0.17;;
79456;SDS011;69494;43.654;3.884;2023-04-19T01:47:10;0.63;;;0.50;;
79456;SDS011;69494;43.654;3.884;2023-04-19T01:49:35;0.22;;;0.22;;
79456;SDS011;69494;43.654;3.884;2023-04-19T01:52:01;0.60;;;0.45;;
79456;SDS011;69494;43.654;3.884;2023-04-19T01:54:26;0.10;;;0.10;;
79456;SDS011;69494;43.654;3.884;2023-04-19T01:56:51;0.80;;;0.63;;
79456;SDS011;69494;43.654;3.884;2023-04-19T01:59:17;0.20;;;0.20;;
79456;SDS011;69494;43.654;3.884;2023-04-19T02:01:42;0.28;;;0.28;;
79456;SDS011;69494;43.654;3.884;2023-04-19T02:04:08;0.40;;;0.40;;
79456;SDS011;69494;43.654;3.884;2023-04-19T02:06:33;0.13;;;0.13;;
79456;SDS011;69494;43.654;3.884;2023-04-19T02:08:58;0.45;;;0.40;;
79456;SDS011;69494;43.654;3.884;2023-04-19T02:11:24;0.45;;;0.45;;
79456;SDS011;69494;43.654;3.884;2023-04-19T02:13:49;0.20;;;0.13;;
79456;SDS011;69494;43.654;3.884;2023-04-19T02:16:15;0.25;;;0.25;;
79456;SDS011;69494;43.654;3.884;2023-04-19T02:18:40;0.13;;;0.10;;
79456;SDS011;69494;43.654;3.884;2023-04-19T02:21:06;0.20;;;0.20;;
79456;SDS011;69494;43.654;3.884;2023-04-19T02:23:33;0.10;;;0.10;;
79456;SDS011;69494;43.654;3.884;2023-04-19T02:25:59;0.28;;;0.20;;
79456;SDS011;69494;43.654;3.884;2023-04-19T02:28:27;0.30;;;0.30;;
79456;SDS011;69494;43.654;3.884;2023-04-19T02:30:55;0.20;;;0.20;;
79456;SDS011;69494;43.654;3.884;2023-04-19T02:33:21;0.20;;;0.20;;
79456;SDS011;69494;43.654;3.884;2023-04-19T02:35:48;0.10;;;0.10;;
79456;SDS011;69494;43.654;3.884;2023-04-19T02:38:13;0.05;;;0.05;;
79456;SDS011;69494;43.654;3.884;2023-04-19T02:40:39;0.22;;;0.22;;
79456;SDS011;69494;43.654;3.884;2023-04-19T02:43:04;0.38;;;0.30;;
79456;SDS011;69494;43.654;3.884;2023-04-19T02:45:29;0.03;;;0.03;;
79456;SDS011;69494;43.654;3.884;2023-04-19T02:47:55;0.60;;;0.60;;
79456;SDS011;69494;43.654;3.884;2023-04-19T02:50:21;2.83;;;0.63;;
79456;SDS011;69494;43.654;3.884;2023-04-19T02:52:46;0.38;;;0.30;;
79456;SDS011;69494;43.654;3.884;2023-04-19T02:55:11;0.13;;;0.13;;
79456;SDS011;69494;43.654;3.884;2023-04-19T02:57:37;0.73;;;0.73;;
79456;SDS011;69494;43.654;3.884;2023-04-19T03:00:02;0.10;;;0.10;;
79456;SDS011;69494;43.654;3.884;2023-04-19T03:02:29;0.13;;;0.10;;
79456;SDS011;69494;43.654;3.884;2023-04-19T03:04:55;0.52;;;0.50;;
79456;SDS011;69494;43.654;3.884;2023-04-19T03:07:20;0.20;;;0.20;;
79456;SDS011;69494;43.654;3.884;2023-04-19T03:09:47;0.10;;;0.10;;
79456;SDS011;69494;43.654;3.884;2023-04-19T03:12:12;0.10;;;0.10;;
79456;SDS011;69494;43.654;3.884;2023-04-19T03:14:37;0.20;;;0.17;;
79456;SDS011;69494;43.654;3.884;2023-04-19T03:17:03;0.10;;;0.10;;
79456;SDS011;69494;43.654;3.884;2023-04-19T03:19:28;0.22;;;0.15;;
79456;SDS011;69494;43.654;3.884;2023-04-19T03:21:54;0.25;;;0.25;;
79456;SDS011;69494;43.654;3.884;2023-04-19T03:24:25;0.68;;;0.50;;
79456;SDS011;69494;43.654;3.884;2023-04-19T03:26:53;0.35;;;0.35;;
79456;SDS011;69494;43.654;3.884;2023-04-19T03:29:18;0.20;;;0.20;;
79456;SDS011;69494;43.654;3.884;2023-04-19T03:31:44;0.13;;;0.13;;
79456;SDS011;69494;43.654;3.884;2023-04-19T03:34:09;0.08;;;0.08;;
79456;SDS011;69494;43.654;3.884;2023-04-19T03:36:35;0.25;;;0.25;;
79456;SDS011;69494;43.654;3.884;2023-04-19T03:39:01;0.45;;;0.45;;
79456;SDS011;69494;43.654;3.884;2023-04-19T03:41:27;0.38;;;0.38;;
79456;SDS011;69494;43.654;3.884;2023-04-19T03:43:53;0.30;;;0.28;;
79456;SDS011;69494;43.654;3.884;2023-04-19T03:46:18;0.43;;;0.32;;
79456;SDS011;69494;43.654;3.884;2023-04-19T03:48:44;0.10;;;0.03;;
79456;SDS011;69494;43.654;3.884;2023-04-19T03:51:09;0.10;;;0.10;;
79456;SDS011;69494;43.654;3.884;2023-04-19T03:53:35;0.20;;;0.20;;
79456;SDS011;69494;43.654;3.884;2023-04-19T03:56:01;0.13;;;0.13;;
79456;SDS011;69494;43.654;3.884;2023-04-19T03:58:26;0.08;;;0.08;;
79456;SDS011;69494;43.654;3.884;2023-04-19T04:00:52;0.47;;;0.45;;
79456;SDS011;69494;43.654;3.884;2023-04-19T04:03:17;0.10;;;0.10;;
79456;SDS011;69494;43.654;3.884;2023-04-19T04:05:43;0.88;;;0.88;;
79456;SDS011;69494;43.654;3.884;2023-04-19T04:08:09;0.30;;;0.30;;
79456;SDS011;69494;43.654;3.884;2023-04-19T04:10:34;0.20;;;0.20;;
79456;SDS011;69494;43.654;3.884;2023-04-19T04:13:00;0.30;;;0.28;;
79456;SDS011;69494;43.654;3.884;2023-04-19T04:15:25;0.20;;;0.20;;
79456;SDS011;69494;43.654;3.884;2023-04-19T04:17:51;0.20;;;0.20;;
79456;SDS011;69494;43.654;3.884;2023-04-19T04:20:16;0.20;;;0.20;;
79456;SDS011;69494;43.654;3.884;2023-04-19T04:22:42;0.15;;;0.13;;
79456;SDS011;69494;43.654;3.884;2023-04-19T04:25:08;0.65;;;0.43;;
79456;SDS011;69494;43.654;3.884;2023-04-19T04:27:34;0.05;;;0.05;;
79456;SDS011;69494;43.654;3.884;2023-04-19T04:29:59;0.10;;;0.10;;
79456;SDS011;69494;43.654;3.884;2023-04-19T04:32:25;0.38;;;0.32;;
79456;SDS011;69494;43.654;3.884;2023-04-19T04:34:51;0.30;;;0.30;;
79456;SDS011;69494;43.654;3.884;2023-04-19T04:37:16;0.22;;;0.22;;
79456;SDS011;69494;43.654;3.884;2023-04-19T04:39:42;0.17;;;0.17;;
79456;SDS011;69494;43.654;3.884;2023-04-19T04:42:08;0.08;;;0.08;;
79456;SDS011;69494;43.654;3.884;2023-04-19T04:44:34;0.17;;;0.17;;
79456;SDS011;69494;43.654;3.884;2023-04-19T04:47:00;0.20;;;0.20;;
79456;SDS011;69494;43.654;3.884;2023-04-19T04:49:25;0.20;;;0.20;;
79456;SDS011;69494;43.654;3.884;2023-04-19T04:51:51;0.25;;;0.25;;
79456;SDS011;69494;43.654;3.884;2023-04-19T04:54:16;0.00;;;0.00;;
79456;SDS011;69494;43.654;3.884;2023-04-19T04:56:42;0.05;;;0.05;;
79456;SDS011;69494;43.654;3.884;2023-04-19T04:59:07;1.88;;;1.20;;
79456;SDS011;69494;43.654;3.884;2023-04-19T05:01:32;0.20;;;0.20;;
79456;SDS011;69494;43.654;3.884;2023-04-19T05:03:58;0.22;;;0.17;;
79456;SDS011;69494;43.654;3.884;2023-04-19T05:06:24;0.10;;;0.10;;
79456;SDS011;69494;43.654;3.884;2023-04-19T05:08:50;0.10;;;0.10;;
79456;SDS011;69494;43.654;3.884;2023-04-19T05:11:15;0.28;;;0.28;;
79456;SDS011;69494;43.654;3.884;2023-04-19T05:13:41;0.10;;;0.10;;
79456;SDS011;69494;43.654;3.884;2023-04-19T05:16:07;0.15;;;0.15;;
79456;SDS011;69494;43.654;3.884;2023-04-19T05:18:32;0.05;;;0.05;;
79456;SDS011;69494;43.654;3.884;2023-04-19T05:20:58;0.20;;;0.20;;
79456;SDS011;69494;43.654;3.884;2023-04-19T05:23:23;0.08;;;0.08;;
79456;SDS011;69494;43.654;3.884;2023-04-19T05:25:48;0.00;;;0.00;;
79456;SDS011;69494;43.654;3.884;2023-04-19T05:28:14;0.40;;;0.40;;
79456;SDS011;69494;43.654;3.884;2023-04-19T05:30:40;0.05;;;0.05;;
79456;SDS011;69494;43.654;3.884;2023-04-19T05:33:05;0.57;;;0.57;;
79456;SDS011;69494;43.654;3.884;2023-04-19T05:35:30;0.43;;;0.28;;
79456;SDS011;69494;43.654;3.884;2023-04-19T05:37:56;0.13;;;0.13;;
79456;SDS011;69494;43.654;3.884;2023-04-19T05:40:21;0.20;;;0.20;;
79456;SDS011;69494;43.654;3.884;2023-04-19T05:42:50;0.52;;;0.47;;
79456;SDS011;69494;43.654;3.884;2023-04-19T05:45:16;0.32;;;0.30;;
79456;SDS011;69494;43.654;3.884;2023-04-19T05:47:43;0.32;;;0.22;;
79456;SDS011;69494;43.654;3.884;2023-04-19T05:50:08;0.20;;;0.20;;
79456;SDS011;69494;43.654;3.884;2023-04-19T05:52:34;0.20;;;0.20;;
79456;SDS011;69494;43.654;3.884;2023-04-19T05:54:59;0.40;;;0.40;;
79456;SDS011;69494;43.654;3.884;2023-04-19T05:57:25;0.03;;;0.03;;
79456;SDS011;69494;43.654;3.884;2023-04-19T05:59:51;0.20;;;0.20;;
79456;SDS011;69494;43.654;3.884;2023-04-19T06:02:16;0.30;;;0.30;;
79456;SDS011;69494;43.654;3.884;2023-04-19T06:04:42;0.20;;;0.20;;
79456;SDS011;69494;43.654;3.884;2023-04-19T06:07:07;0.05;;;0.05;;
79456;SDS011;69494;43.654;3.884;2023-04-19T06:09:33;0.10;;;0.10;;
79456;SDS011;69494;43.654;3.884;2023-04-19T06:11:58;0.10;;;0.10;;
79456;SDS011;69494;43.654;3.884;2023-04-19T06:14:25;0.00;;;0.00;;
79456;SDS011;69494;43.654;3.884;2023-04-19T06:16:52;0.20;;;0.20;;
79456;SDS011;69494;43.654;3.884;2023-04-19T06:19:17;0.00;;;0.00;;
79456;SDS011;69494;43.654;3.884;2023-04-19T06:21:43;0.13;;;0.13;;
79456;SDS011;69494;43.654;3.884;2023-04-19T06:24:08;0.10;;;0.10;;
79456;SDS011;69494;43.654;3.884;2023-04-19T06:26:33;0.45;;;0.40;;
79456;SDS011;69494;43.654;3.884;2023-04-19T06:28:59;0.20;;;0.15;;
79456;SDS011;69494;43.654;3.884;2023-04-19T06:31:25;0.00;;;0.00;;
79456;SDS011;69494;43.654;3.884;2023-04-19T06:33:50;0.30;;;0.30;;
79456;SDS011;69494;43.654;3.884;2023-04-19T06:36:16;0.47;;;0.47;;
79456;SDS011;69494;43.654;3.884;2023-04-19T06:38:41;1.13;;;0.50;;
79456;SDS011;69494;43.654;3.884;2023-04-19T06:41:08;0.43;;;0.38;;
79456;SDS011;69494;43.654;3.884;2023-04-19T06:43:34;0.10;;;0.10;;
79456;SDS011;69494;43.654;3.884;2023-04-19T06:46:00;0.22;;;0.20;;
79456;SDS011;69494;43.654;3.884;2023-04-19T06:48:28;0.17;;;0.17;;
79456;SDS011;69494;43.654;3.884;2023-04-19T06:50:54;0.10;;;0.10;;
79456;SDS011;69494;43.654;3.884;2023-04-19T06:53:19;0.10;;;0.10;;
79456;SDS011;69494;43.654;3.884;2023-04-19T06:55:45;0.13;;;0.13;;
79456;SDS011;69494;43.654;3.884;2023-04-19T06:58:11;0.00;;;0.00;;
79456;SDS011;69494;43.654;3.884;2023-04-19T07:00:36;0.35;;;0.35;;
79456;SDS011;69494;43.654;3.884;2023-04-19T07:03:02;0.30;;;0.30;;
79456;SDS011;69494;43.654;3.884;2023-04-19T07:05:28;0.20;;;0.20;;
79456;SDS011;69494;43.654;3.884;2023-04-19T07:07:54;0.00;;;0.00;;
79456;SDS011;69494;43.654;3.884;2023-04-19T07:10:20;0.10;;;0.10;;
79456;SDS011;69494;43.654;3.884;2023-04-19T07:12:45;0.75;;;0.55;;
79456;SDS011;69494;43.654;3.884;2023-04-19T07:15:11;0.08;;;0.03;;
79456;SDS011;69494;43.654;3.884;2023-04-19T07:17:36;0.05;;;0.05;;
79456;SDS011;69494;43.654;3.884;2023-04-19T07:20:03;0.80;;;0.52;;
79456;SDS011;69494;43.654;3.884;2023-04-19T07:22:30;0.10;;;0.10;;
79456;SDS011;69494;43.654;3.884;2023-04-19T07:24:56;0.75;;;0.30;;
79456;SDS011;69494;43.654;3.884;2023-04-19T07:27:21;0.10;;;0.10;;
79456;SDS011;69494;43.654;3.884;2023-04-19T07:29:47;0.10;;;0.10;;
79456;SDS011;69494;43.654;3.884;2023-04-19T07:32:12;0.20;;;0.20;;
79456;SDS011;69494;43.654;3.884;2023-04-19T07:34:39;0.30;;;0.30;;
79456;SDS011;69494;43.654;3.884;2023-04-19T07:37:05;0.30;;;0.30;;
79456;SDS011;69494;43.654;3.884;2023-04-19T07:39:31;0.00;;;0.00;;
79456;SDS011;69494;43.654;3.884;2023-04-19T07:41:57;0.22;;;0.20;;
79456;SDS011;69494;43.654;3.884;2023-04-19T07:44:22;0.38;;;0.30;;
79456;SDS011;69494;43.654;3.884;2023-04-19T07:46:48;0.10;;;0.10;;
79456;SDS011;69494;43.654;3.884;2023-04-19T07:49:14;0.38;;;0.17;;
79456;SDS011;69494;43.654;3.884;2023-04-19T07:51:39;0.10;;;0.10;;
79456;SDS011;69494;43.654;3.884;2023-04-19T07:54:05;0.17;;;0.17;;
79456;SDS011;69494;43.654;3.884;2023-04-19T07:56:31;0.15;;;0.15;;
79456;SDS011;69494;43.654;3.884;2023-04-19T07:58:57;0.00;;;0.00;;
79456;SDS011;69494;43.654;3.884;2023-04-19T08:01:23;0.00;;;0.00;;
79456;SDS011;69494;43.654;3.884;2023-04-19T08:03:48;0.10;;;0.08;;
79456;SDS011;69494;43.654;3.884;2023-04-19T08:06:14;0.93;;;0.43;;
79456;SDS011;69494;43.654;3.884;2023-04-19T08:08:39;0.32;;;0.20;;
79456;SDS011;69494;43.654;3.884;2023-04-19T08:11:04;0.15;;;0.10;;
79456;SDS011;69494;43.654;3.884;2023-04-19T08:13:30;0.00;;;0.00;;
79456;SDS011;69494;43.654;3.884;2023-04-19T08:15:56;0.43;;;0.20;;
79456;SDS011;69494;43.654;3.884;2023-04-19T16:35:05;4.63;;;1.88;;
79456;SDS011;69494;43.654;3.884;2023-04-19T16:37:32;4.60;;;1.85;;
79456;SDS011;69494;43.654;3.884;2023-04-19T16:39:58;6.75;;;1.80;;
79456;SDS011;69494;43.654;3.884;2023-04-19T16:42:24;5.82;;;1.80;;
79456;SDS011;69494;43.654;3.884;2023-04-19T16:44:49;5.28;;;2.15;;
79456;SDS011;69494;43.654;3.884;2023-04-19T16:47:15;5.97;;;1.92;;
79456;SDS011;69494;43.654;3.884;2023-04-19T16:49:40;5.22;;;2.20;;
79456;SDS011;69494;43.654;3.884;2023-04-19T16:52:06;4.70;;;2.10;;
79456;SDS011;69494;43.654;3.884;2023-04-19T16:54:31;6.45;;;2.03;;
